Time;durP1;ratioP1;P1;durP2;ratioP2;P2;SDS_P1;SDS_P2;PMS_P1;PMS_P2;Temp;Humidity;BMP_temperature;BMP_pressure;BME280_temperature;BME280_humidity;BME280_pressure;Samples;Min_cycle;Max_cycle;Signal;HPM_P1;HPM_P2
2021/12/24 00:08:07;;;;;;;13.3;17.2;;;;;;;0.9;74.9;97490;;;;
2021/12/24 00:18:14;;;;;;;13.3;17.2;;;;;;;0.8;76.3;97480;;;;
2021/12/24 00:40:13;;;;;;;15;19.4;;;;;;;0.7;78.6;97430;;;;
2021/12/24 00:50:10;;;;;;;12.1;15.1;;;;;;;0.7;78.3;97420;;;;
2021/12/24 01:00:07;;;;;;;12.1;15.1;;;;;;;0.7;77.3;97400;;;;
2021/12/24 01:11:07;;;;;;;12.1;15.1;;;;;;;0.5;77.2;97370;;;;
2021/12/24 01:22:44;;;;;;;11;14.5;;;;;;;0.5;78;97350;;;;
2021/12/24 01:43:07;;;;;;;11;14.5;;;;;;;0.5;80.1;97320;;;;
2021/12/24 01:54:10;;;;;;;10.5;12.5;;;;;;;0.5;80.7;97300;;;;
2021/12/24 02:04:07;;;;;;;10.5;12.5;;;;;;;0.5;81.3;97280;;;;
2021/12/24 02:14:07;;;;;;;10.5;12.5;;;;;;;0.5;81.6;97280;;;;
2021/12/24 02:35:07;;;;;;;10.2;12.4;;;;;;;0.5;83.3;97250;;;;
2021/12/24 02:46:10;;;;;;;10.2;12.4;;;;;;;0.5;82.4;97230;;;;
2021/12/24 02:57:10;;;;;;;11;14.9;;;;;;;0.5;82.2;97200;;;;
2021/12/24 03:08:07;;;;;;;11;14.9;;;;;;;0.6;81.9;97190;;;;
2021/12/24 03:18:07;;;;;;;11;14.9;;;;;;;0.8;81.7;97200;;;;
2021/12/24 03:28:07;;;;;;;10.7;13.7;;;;;;;0.8;81.9;97180;;;;
2021/12/24 03:39:07;;;;;;;10.7;13.7;;;;;;;1;81.5;97180;;;;
2021/12/24 03:50:10;;;;;;;11.4;13.5;;;;;;;1;81.5;97160;;;;
2021/12/24 04:01:07;;;;;;;11.4;13.5;;;;;;;1.1;81.4;97160;;;;
2021/12/24 04:12:07;;;;;;;11.4;13.5;;;;;;;1.1;80.8;97160;;;;
2021/12/24 04:34:07;;;;;;;9.5;12.9;;;;;;;1.3;80.3;97130;;;;
2021/12/24 05:04:09;;;;;;;9.6;12.9;;;;;;;1.4;80.8;97130;;;;
2021/12/24 05:14:07;;;;;;;9.6;12.9;;;;;;;1.5;81;97120;;;;
2021/12/24 05:25:07;;;;;;;8.6;11.6;;;;;;;1.5;81.5;97120;;;;
2021/12/24 05:35:07;;;;;;;8.6;11.6;;;;;;;1.5;81.4;97100;;;;
2021/12/24 05:46:07;;;;;;;8.6;11.6;;;;;;;1.7;81.1;97090;;;;
2021/12/24 05:56:07;;;;;;;8.7;11.6;;;;;;;1.8;81;97090;;;;
2021/12/24 06:07:07;;;;;;;8.7;11.6;;;;;;;1.8;81.1;97100;;;;
2021/12/24 06:18:12;;;;;;;8.7;11.6;;;;;;;2;81.1;97100;;;;
2021/12/24 06:28:07;;;;;;;8.1;10.9;;;;;;;2.2;81.3;97100;;;;
2021/12/24 06:39:07;;;;;;;8.1;10.9;;;;;;;2.3;81.4;97100;;;;
2021/12/24 06:49:07;;;;;;;7.1;8.7;;;;;;;2.2;82.2;97100;;;;
2021/12/24 07:00:07;;;;;;;7.1;8.7;;;;;;;2.4;82;97110;;;;
2021/12/24 07:10:07;;;;;;;7.1;8.7;;;;;;;2.5;82.3;97110;;;;
2021/12/24 07:20:07;;;;;;;7.7;12;;;;;;;2.7;82.3;97120;;;;
2021/12/24 07:30:09;;;;;;;7.7;12;;;;;;;2.7;82.7;97100;;;;
2021/12/24 07:41:07;;;;;;;7.7;12;;;;;;;2.9;82.2;97100;;;;
2021/12/24 07:52:13;;;;;;;6.4;8.6;;;;;;;3;81.9;97100;;;;
2021/12/24 08:01:07;;;;;;;6.4;8.6;;;;;;;3.3;81.1;97080;;;;
2021/12/24 08:11:07;;;;;;;6.4;8.6;;;;;;;3.4;80.6;97100;;;;
2021/12/24 08:22:07;;;;;;;5;8.4;;;;;;;3.6;80.3;97080;;;;
2021/12/24 08:32:07;;;;;;;5;8.4;;;;;;;3.7;79.7;97090;;;;
2021/12/24 08:42:07;;;;;;;5;8.4;;;;;;;3.9;79.3;97090;;;;
2021/12/24 08:53:07;;;;;;;5.9;9.7;;;;;;;4.1;79;97080;;;;
2021/12/24 09:03:07;;;;;;;5.9;9.7;;;;;;;4.2;78.2;97080;;;;
2021/12/24 09:13:07;;;;;;;5.9;9.7;;;;;;;4.5;77.5;97060;;;;
2021/12/24 09:23:07;;;;;;;6.7;9.7;;;;;;;4.7;77.1;97050;;;;
2021/12/24 09:34:07;;;;;;;6.7;9.7;;;;;;;5;76.5;97040;;;;
2021/12/24 09:44:07;;;;;;;6.7;9.7;;;;;;;5.2;76;97030;;;;
2021/12/24 09:55:07;;;;;;;7.7;11.6;;;;;;;5.2;76.4;97020;;;;
2021/12/24 10:05:07;;;;;;;7.7;11.6;;;;;;;5.3;76.2;97020;;;;
2021/12/24 10:15:07;;;;;;;7.7;11.6;;;;;;;5.1;76.3;97020;;;;
2021/12/24 10:26:07;;;;;;;6.8;9.1;;;;;;;5.2;76.4;97010;;;;
2021/12/24 10:36:07;;;;;;;6.8;9.1;;;;;;;5.2;76.3;96990;;;;
2021/12/24 10:47:07;;;;;;;6.8;9.1;;;;;;;5.3;76.5;96980;;;;
2021/12/24 10:57:10;;;;;;;6.8;10.3;;;;;;;5.5;76;96970;;;;
2021/12/24 11:07:07;;;;;;;6.8;10.3;;;;;;;5.5;76.4;96950;;;;
2021/12/24 11:17:07;;;;;;;6.8;10.3;;;;;;;5.5;76.1;96970;;;;
2021/12/24 11:27:07;;;;;;;5.7;11;;;;;;;5.6;76.2;96950;;;;
2021/12/24 11:38:07;;;;;;;5.7;11;;;;;;;5.7;76.3;96910;;;;
2021/12/24 11:48:07;;;;;;;5.9;9.7;;;;;;;5.7;76;96930;;;;
2021/12/24 11:58:07;;;;;;;5.9;9.7;;;;;;;5.7;76.3;96920;;;;
2021/12/24 12:09:08;;;;;;;5.9;9.7;;;;;;;5.8;76.3;96910;;;;
2021/12/24 12:20:15;;;;;;;7.1;9.1;;;;;;;5.8;76.4;96900;;;;
2021/12/24 12:31:07;;;;;;;7.1;9.1;;;;;;;5.8;77;96890;;;;
2021/12/24 12:41:07;;;;;;;7.1;9.1;;;;;;;5.8;76.8;96890;;;;
2021/12/24 12:52:11;;;;;;;6.4;11.7;;;;;;;6;76.3;96890;;;;
2021/12/24 13:02:07;;;;;;;6.4;11.7;;;;;;;6;76.2;96900;;;;
2021/12/24 13:12:07;;;;;;;6.4;11.7;;;;;;;5.9;76.7;96910;;;;
2021/12/24 13:23:07;;;;;;;6.3;9.1;;;;;;;6;77.4;96930;;;;
2021/12/24 13:34:07;;;;;;;6.3;9.1;;;;;;;6.1;77.3;96920;;;;
2021/12/24 13:45:07;;;;;;;6.3;9.1;;;;;;;6.4;77.1;96940;;;;
2021/12/24 13:56:07;;;;;;;8.6;11.2;;;;;;;6.7;76.8;96950;;;;
2021/12/24 14:06:08;;;;;;;8.6;11.2;;;;;;;6.9;76;96970;;;;
2021/12/24 14:17:33;;;;;;;8.6;11.2;;;;;;;7.1;75.4;96960;;;;
2021/12/24 14:27:07;;;;;;;7.7;8.9;;;;;;;7;76;96950;;;;
2021/12/24 14:37:07;;;;;;;7.7;8.9;;;;;;;7.1;76.1;96970;;;;
2021/12/24 14:47:07;;;;;;;7.7;8.9;;;;;;;7.1;76.6;96970;;;;
2021/12/24 14:58:07;;;;;;;7.6;10.4;;;;;;;6.6;77.6;96950;;;;
2021/12/24 15:08:07;;;;;;;7.6;10.4;;;;;;;6.3;78.2;96950;;;;
2021/12/24 15:19:08;;;;;;;9.4;13.9;;;;;;;6.4;77.7;96980;;;;
2021/12/24 15:29:07;;;;;;;9.4;13.9;;;;;;;6.5;77.8;96970;;;;
2021/12/24 15:39:07;;;;;;;9.4;13.9;;;;;;;6.6;77.8;96950;;;;
2021/12/24 15:50:07;;;;;;;7.3;8.7;;;;;;;6.7;77.3;96960;;;;
2021/12/24 16:01:07;;;;;;;7.3;8.7;;;;;;;6.8;76.7;96950;;;;
2021/12/24 16:12:07;;;;;;;7.3;8.7;;;;;;;6.9;76.2;96940;;;;
2021/12/24 16:22:07;;;;;;;8.3;11.2;;;;;;;6.9;76.2;96940;;;;
2021/12/24 16:32:07;;;;;;;8.3;11.2;;;;;;;6.9;75.8;96940;;;;
2021/12/24 16:42:07;;;;;;;8.3;11.2;;;;;;;7.1;75.2;96940;;;;
2021/12/24 16:53:07;;;;;;;6.8;9.9;;;;;;;7.2;74.4;96930;;;;
2021/12/24 17:04:07;;;;;;;6.8;9.9;;;;;;;7.2;73.9;96920;;;;
2021/12/24 17:14:10;;;;;;;6.8;9.9;;;;;;;7.3;73.2;96910;;;;
2021/12/24 17:24:07;;;;;;;7;10.3;;;;;;;7.2;73.2;96900;;;;
2021/12/24 17:34:07;;;;;;;7;10.3;;;;;;;7.2;72.8;96910;;;;
2021/12/24 17:44:07;;;;;;;7;10.3;;;;;;;7;73.2;96900;;;;
2021/12/24 17:55:07;;;;;;;6.4;9.3;;;;;;;7.1;73.1;96910;;;;
2021/12/24 18:05:07;;;;;;;6.4;9.3;;;;;;;7.1;72.9;96910;;;;
2021/12/24 18:16:07;;;;;;;6.4;9.3;;;;;;;7.2;72;96920;;;;
2021/12/24 18:26:07;;;;;;;6.6;8.6;;;;;;;7.3;71.9;96920;;;;
2021/12/24 18:37:07;;;;;;;6.6;8.6;;;;;;;7.3;71.8;96910;;;;
2021/12/24 18:47:10;;;;;;;6.5;10.5;;;;;;;7.5;70.9;96910;;;;
2021/12/24 18:57:07;;;;;;;6.5;10.5;;;;;;;7.6;70;96890;;;;
2021/12/24 19:08:07;;;;;;;6.5;10.5;;;;;;;7.9;69;96910;;;;
2021/12/24 19:19:07;;;;;;;4.3;6.6;;;;;;;8;68.3;96900;;;;
2021/12/24 19:30:07;;;;;;;4.3;6.6;;;;;;;8.1;67.8;96900;;;;
2021/12/24 19:41:07;;;;;;;4.3;6.6;;;;;;;8.2;67;96920;;;;
2021/12/24 19:51:07;;;;;;;4;6.1;;;;;;;8.2;66.8;96900;;;;
2021/12/24 20:02:07;;;;;;;4;6.1;;;;;;;8.2;66.6;96930;;;;
2021/12/24 20:12:08;;;;;;;4;6.1;;;;;;;8.4;66.3;96920;;;;
2021/12/24 20:23:07;;;;;;;4.7;8;;;;;;;8.4;66.2;96940;;;;
2021/12/24 20:33:07;;;;;;;4.7;8;;;;;;;8.4;65.9;96940;;;;
2021/12/24 20:44:07;;;;;;;4.7;8;;;;;;;8.4;65.8;96940;;;;
2021/12/24 20:54:08;;;;;;;4.5;7.7;;;;;;;8.4;65.9;96950;;;;
2021/12/24 21:05:07;;;;;;;4.5;7.7;;;;;;;8.4;65.7;96970;;;;
2021/12/24 21:16:07;;;;;;;4.5;7.7;;;;;;;8.5;66;96970;;;;
2021/12/24 21:26:07;;;;;;;6.9;10.7;;;;;;;8.7;65;97000;;;;
2021/12/24 21:37:07;;;;;;;6.9;10.7;;;;;;;8.7;65.5;97010;;;;
2021/12/24 21:48:07;;;;;;;6.1;9.6;;;;;;;8.3;69.7;97100;;;;
2021/12/24 21:58:07;;;;;;;6.1;9.6;;;;;;;6.3;75.8;97140;;;;
2021/12/24 22:09:07;;;;;;;6.1;9.6;;;;;;;4.7;77.8;97220;;;;
2021/12/24 22:19:07;;;;;;;4.6;8.5;;;;;;;3.8;78.5;97260;;;;
2021/12/24 22:30:07;;;;;;;4.6;8.5;;;;;;;3.4;79.5;97280;;;;
2021/12/24 22:41:08;;;;;;;4.6;8.5;;;;;;;3;78.4;97290;;;;
2021/12/24 22:51:07;;;;;;;5.5;10.1;;;;;;;2.9;78.6;97310;;;;
2021/12/24 23:01:07;;;;;;;5.5;10.1;;;;;;;2.6;79.1;97340;;;;
2021/12/24 23:12:08;;;;;;;5.5;10.1;;;;;;;2.4;79.4;97380;;;;
2021/12/24 23:23:07;;;;;;;4;6.5;;;;;;;2.1;80;97390;;;;
2021/12/24 23:33:07;;;;;;;4;6.5;;;;;;;2.1;80.7;97420;;;;
2021/12/24 23:43:17;;;;;;;4;6.5;;;;;;;1.9;81.2;97440;;;;
2021/12/24 23:53:13;;;;;;;3.6;6.2;;;;;;;1.8;81.6;97450;;;;
